Skip to main content

NOAA/GLERL Met Station at Chicago, IL

Previous 3 Hours (2 minute increments)
See also Previous 5 Days (top of hour)
Jump down to Data
Switch to [English][Metric]
Zoom: Click and drag, Pan: shift-click and drag, Unzoom: double-click, Unzoom All




See also 1-day windrose plot


NOAA/GLERL Met Station at Chicago, IL

Previous 3 Hours (2 minute increments)
See also Previous 5 Days (top of hour only)
Jump up to Graphs
Switch to [English][Metric]
                  Wind  Wind  Wind   Air   Dew   Rel
                   Spd   Gst   Dir  Temp    Pt   Hum
YYYY-MM-DD   CST   m/s   m/s   deg     C     C     %
2018-11-17 05:36   2.4   2.7   325   2.1   0.2  87.2
2018-11-17 05:34   2.5   3.0   321   2.1   0.2  87.1
2018-11-17 05:32   2.5   3.0   329   2.1   0.2  86.9
2018-11-17 05:30   2.6   2.9   327   2.1   0.1  86.5
2018-11-17 05:28   2.5   2.8   319   2.2   0.1  86.2
2018-11-17 05:26   2.4   2.8   326   2.2   0.1  85.9
2018-11-17 05:24   2.3   2.6   328   2.2   0.0  85.5
2018-11-17 05:22   2.5   2.9   325   2.2  -0.1  85.0
2018-11-17 05:20   2.5   2.8   322   2.3   0.0  84.8
2018-11-17 05:18   2.2   2.8   310   2.2  -0.2  84.3
2018-11-17 05:16   2.2   2.9   321   2.3  -0.1  84.1
2018-11-17 05:14   2.4   2.9   316   2.3  -0.2  83.8
2018-11-17 05:12   2.2   2.8   301   2.3  -0.2  83.5
2018-11-17 05:10   2.3   2.8   297   2.3  -0.2  83.4
2018-11-17 05:08   2.2   2.4   298   2.4  -0.1  83.3
2018-11-17 05:06   2.6   2.8   302   2.4  -0.2  83.0
2018-11-17 05:04   2.2   2.6   306   2.4  -0.3  82.5
2018-11-17 05:02   2.6   3.1   306   2.4  -0.3  82.5
2018-11-17 05:00   1.6   2.0   304   2.5  -0.2  82.5
2018-11-17 04:58   1.5   2.0   294   2.5  -0.3  81.9
2018-11-17 04:56   1.4   2.0   309   2.4  -0.4  81.7
2018-11-17 04:54   2.0   2.5   311   2.5  -0.3  81.6
2018-11-17 04:52   2.0   2.5   303   2.6  -0.2  81.5
2018-11-17 04:50   1.6   2.3   290   2.5  -0.4  81.0
2018-11-17 04:48   1.8   2.1   294   2.5  -0.4  81.0
2018-11-17 04:46   1.9   2.3   286   2.6  -0.3  81.2
2018-11-17 04:44   1.6   1.9   292   2.6  -0.3  81.1
2018-11-17 04:42   1.7   2.0   291   2.5  -0.4  80.9
2018-11-17 04:40   1.8   2.2   291   2.6  -0.3  81.1
2018-11-17 04:38   1.7   2.2   286   2.6  -0.3  81.0
2018-11-17 04:36   1.5   1.8   299   2.5  -0.5  80.8
2018-11-17 04:34   1.7   2.0   300   2.5  -0.4  80.9
2018-11-17 04:32   1.5   1.9   290   2.5  -0.4  80.9
2018-11-17 04:30   1.4   1.9   303   2.5  -0.5  80.8
2018-11-17 04:28   1.7   2.1   306   2.5  -0.4  81.0
2018-11-17 04:26   1.5   2.1   319   2.5  -0.4  81.3
2018-11-17 04:24   1.6   2.1   331   2.6  -0.2  81.5
2018-11-17 04:22   1.7   2.1   340   2.5  -0.4  81.4
2018-11-17 04:20   2.2   2.7   318   2.5  -0.4  81.4
2018-11-17 04:18   2.3   2.5   327   2.5  -0.3  81.5
2018-11-17 04:16   1.9   2.3   319   2.5  -0.3  81.5
2018-11-17 04:14   1.6   2.3   316   2.4  -0.5  81.3
2018-11-17 04:12   2.0   2.3   315   2.4  -0.5  81.2
2018-11-17 04:10   1.9   2.4   310   2.4  -0.4  81.5
2018-11-17 04:08   1.8   2.1   322   2.4  -0.5  81.2
2018-11-17 04:06   2.1   2.5   305   2.4  -0.5  81.3
2018-11-17 04:04   2.1   2.5   318   2.4  -0.4  81.6
2018-11-17 04:02   2.1   2.6   311   2.4  -0.4  81.5
2018-11-17 04:00   2.0   2.3   282   2.4  -0.5  81.4
2018-11-17 03:58   1.8   2.3   285   2.4  -0.5  81.4
2018-11-17 03:56   1.8   2.0   303   2.4  -0.5  81.4
2018-11-17 03:54   1.9   2.3   304   2.4  -0.4  81.5
2018-11-17 03:52   1.7   2.2   307   2.4  -0.5  81.3
2018-11-17 03:50   1.9   2.4   310   2.4  -0.5  81.3
2018-11-17 03:48   1.8   2.2   314   2.4  -0.5  81.3
2018-11-17 03:46   2.1   2.3   318   2.4  -0.4  81.6
2018-11-17 03:44   1.8   2.3   312   2.5  -0.3  81.7
2018-11-17 03:42   1.8   2.2   306   2.4  -0.5  81.4
2018-11-17 03:40   2.0   2.3   315   2.4  -0.5  81.3
2018-11-17 03:38   1.8   2.1   301   2.4  -0.4  81.5
2018-11-17 03:36   1.6   2.1   307   2.4  -0.4  81.6
2018-11-17 03:34   1.9   2.5   310   2.4  -0.4  81.6
2018-11-17 03:32   2.0   2.4   308   2.4  -0.4  81.7
2018-11-17 03:30   2.0   2.4   309   2.4  -0.4  81.9
2018-11-17 03:28   2.0   2.4   299   2.4  -0.4  81.9
2018-11-17 03:26   2.2   2.5   300   2.4  -0.4  81.7
2018-11-17 03:24   2.3   2.7   312   2.4  -0.4  81.6
2018-11-17 03:22   2.9   3.4   325   2.4  -0.4  81.5
2018-11-17 03:20   2.6   3.3   318   2.3  -0.5  81.5
2018-11-17 03:18   2.4   2.8   315   2.3  -0.5  81.7
2018-11-17 03:16   2.3   2.7   314   2.4  -0.4  81.7
2018-11-17 03:14   1.8   2.5   324   2.3  -0.6  81.3
2018-11-17 03:12   2.4   3.2   319   2.3  -0.5  81.7
2018-11-17 03:10   2.2   2.4   313   2.4  -0.4  81.8
2018-11-17 03:08   2.4   2.8   318   2.3  -0.5  81.6
2018-11-17 03:06   2.5   2.8   325   2.3  -0.5  81.6
2018-11-17 03:04   2.5   3.1   313   2.3  -0.5  81.8
2018-11-17 03:02   2.6   3.3   311   2.3  -0.5  81.9
2018-11-17 03:00   2.5   3.0   320   2.3  -0.5  82.0
2018-11-17 02:58   2.8   3.3   321   2.4  -0.3  82.4
2018-11-17 02:56   2.5   3.1   325   2.4  -0.3  82.4
2018-11-17 02:54   2.2   2.6   311   2.4  -0.3  82.3
2018-11-17 02:52   2.5   2.8   315   2.3  -0.5  81.8
2018-11-17 02:50   2.9   3.3   321   2.3  -0.5  81.8
2018-11-17 02:48   1.7   2.6   340   2.3  -0.5  81.8
2018-11-17 02:46   2.2   2.8   336   2.3  -0.5  82.0
2018-11-17 02:44   1.9   2.4   318   2.3  -0.5  81.9
2018-11-17 02:42   2.1   2.7   319   2.4  -0.3  82.2
2018-11-17 02:40   1.9   2.4   339   2.3  -0.5  82.0
2018-11-17 02:38   2.5   2.9   346   2.3  -0.5  81.9
2018-11-17 02:36   2.3   2.6   346   2.3  -0.5  82.0